PROFILE

 METAR AND TAF INFORMATION
ADDS - METARS form results

(0713 UTC 17 October 2021)
http://aviationweather.gov/metar/data/
 
EHRD 170655Z AUTO 19009KT 9999 SCT036 OVC040 11/07 Q1019 NOSIG
EHRD 170625Z AUTO 19008KT 160V230 9999 OVC036 11/07 Q1019 NOSIG
TAF EHRD 170447Z 1706/1812 19008KT CAVOK 

 AIRPORT MAP

 RUNWAY INFORMATION
Runway 06 Runway length 7218 ft Runway width 148 ft
Runway elevation 0 ft Runway displaced threshold 656 ft Runway heading 57
Runway 24 Runway length 7218 ft Runway width 148 ft
Runway elevation 0 ft Runway displaced threshold 656 ft Runway heading 237

 AIRPORT FREQUENCIES
Type A/D Name SCHIPHOL Frequency 121.2 MHZ
Type APP Name APP Frequency 127.025 MHZ
Type ATIS Name ATIS Frequency 110.4 MHZ
Type GND Name GND Frequency 122.175 MHZ
Type TWR Name TWR Frequency 118.2 MHZ

 AIRPORT NEAR NAVIGATION AIDS
Type NDB Name Rotterdam Frequency 351 KHZ
Type VOR-DME Name Rotterdam Frequency 110400 KHZ